Boldon, United Kingdom
Current Conditions -  °F | °C
As of 10:20 PM on Wednesday 28 Jan 2015 (Local Time) from EGNT Reporting Station
Few Clouds Few Clouds  
Wind Chill: -6°   Ceiling: Unl
Heat Index:   Visibility: 6mi
Dew Point: -1°   Wind: 18mph
Humidity: 93%   Direction: 260°W
Pressure: 29.09"   Gusts: NA
Location:  54.94°N, 1.45°W
Report Text: EGNT 282220Z 26016KT 9999 FEW012 00/M01 Q0985
Loading
Personal Weather Stations






























Interactive Weather Map New forecast layout! Learn more

10-Day Weather Forecast

Advertisements
Track Severe Weather on mobile